• Join FlightAware (Why Join?)
  • Login
  • US Flag 
10:14PM EST


 

Airport Tracker/Info


-or-


 

Live Flight TrackerFlight Track Log ✈ TAM3035 ✈ 04-Nov-2013 ✈ SBSP / CGH - SBJV / JOI

Flight Track Log - Related Links

Times and Time Zones

All times are in EST time to prevent confusion due to time zone crossing. See the TAM3035 flight status page for this flight to view local times or setup timezone preferences in your user account.

Time Position Orientation Groundspeed Altitude Reporting Facility
EST Latitude Longitude Course Direction KTS MPH feet Rate Location/Type
04:04AM -23.6720 -46.6660 254° West 219 252 4,600  Level FlightAware
04:05AM -23.6790 -46.7140 261° West 271 312 5,800 1,273 Climbing FlightAware
04:05AM -23.7000 -46.7500 237° Southwest 291 335 6,000 375 Climbing FlightAware
04:06AM -23.7160 -46.7700 229° Southwest 289 333 6,100 1,962 Climbing FlightAware
04:06AM -23.7440 -46.8070 230° Southwest 292 336 7,700 3,656 Climbing FlightAware
04:07AM -23.7720 -46.8420 229° Southwest 288 331 10,000 3,892 Climbing FlightAware
04:07AM -23.8090 -46.8890 229° Southwest 292 336 12,500 3,214 Climbing FlightAware
04:08AM -23.8470 -46.9380 230° Southwest 308 354 14,500 2,930 Climbing FlightAware
04:09AM -23.8880 -46.9910 230° Southwest 313 360 16,700 2,643 Climbing FlightAware
04:10AM -23.9260 -47.0400 230° Southwest 330 380 18,200 2,583 Climbing FlightAware
04:10AM -23.9580 -47.0820 230° Southwest 329 379 19,800 2,105 Climbing FlightAware
04:11AM -24.0400 -47.1890 230° Southwest 362 417 22,200 1,685 Climbing FlightAware
04:13AM -24.1120 -47.2830 230° Southwest 376 433 23,900 1,019 Climbing FlightAware
04:13AM -24.1590 -47.3440 230° Southwest 375 432 24,000 77 Climbing FlightAware
04:14AM -24.1990 -47.3970 230° Southwest 381 438 24,000  Level FlightAware
04:14AM -24.2450 -47.4560 229° Southwest 381 438 24,000  Level FlightAware
04:15AM -24.3050 -47.5340 230° Southwest 385 443 24,000  Level FlightAware
04:17AM -24.3860 -47.6410 230° Southwest 382 440 24,000  Level FlightAware
04:17AM -24.4390 -47.7090 229° Southwest 382 440 24,000  Level FlightAware
04:18AM -24.4740 -47.7560 231° Southwest 385 443 24,000  Level FlightAware
04:18AM -24.5160 -47.8110 230° Southwest 384 442 24,000  Level FlightAware
04:19AM -24.5550 -47.8620 230° Southwest 382 440 24,000  Level FlightAware
04:20AM -24.5970 -47.9180 230° Southwest 387 445 24,000  Level FlightAware
04:20AM -24.6440 -47.9790 230° Southwest 388 447 24,000  Level FlightAware
04:21AM -24.7090 -48.0660 231° Southwest 366 421 24,000  Level FlightAware
04:22AM -24.7500 -48.1190 230° Southwest 365 420 24,000  Level FlightAware
04:22AM -24.7840 -48.1650 231° Southwest 362 417 24,000  Level FlightAware
04:23AM -24.8240 -48.2200 231° Southwest 327 376 24,000  Level FlightAware
04:24AM -24.8470 -48.2600 238° Southwest 308 354 24,000 -265 Level FlightAware
04:24AM -24.8730 -48.3110 241° Southwest 308 354 23,700 -405 Descending FlightAware
04:25AM -24.9020 -48.3590 236° Southwest 306 352 23,500 -441 Descending FlightAware
04:25AM -24.9280 -48.4010 236° Southwest 305 351 23,200 -789 Descending FlightAware
04:26AM -24.9620 -48.4570 236° Southwest 313 360 22,500 -886 Descending FlightAware
04:27AM -25.0010 -48.5210 236° Southwest 357 411 21,900 -643 Descending FlightAware
04:28AM -25.0360 -48.5820 238° Southwest 362 417 21,600 -525 Descending FlightAware
04:28AM -25.0900 -48.6290 218° Southwest 369 425 21,200 -514 Descending FlightAware
04:29AM -25.1370 -48.6420 194° South 369 425 21,000 -417 Descending FlightAware
04:29AM -25.2110 -48.6410 179° South 368 423 20,700 -512 Descending FlightAware
04:30AM -25.2780 -48.6420 181° South 365 420 20,300 -500 Descending FlightAware
04:31AM -25.3330 -48.6420 180° South 361 415 20,100 -441 Descending FlightAware
04:31AM -25.3920 -48.6430 181° South 360 414 19,800 -536 Descending FlightAware
04:32AM -25.5190 -48.6430 180° South 360 414 19,100 -750 Descending FlightAware
04:33AM -25.5920 -48.6430 180° South 359 413 18,300 -1,385 Descending FlightAware
04:34AM -25.6500 -48.6430 180° South 353 406 17,300 -1,816 Descending FlightAware
04:34AM -25.7160 -48.6440 181° South 343 395 16,000 -1,756 Descending FlightAware
04:35AM -25.7770 -48.6440 180° South 336 387 14,900 -1,755 Descending FlightAware
04:36AM -25.8820 -48.6440 180° South 330 380 12,900 -1,696 Descending FlightAware
04:37AM -25.9830 -48.6440 180° South 325 374 11,000 -1,588 Descending FlightAware
04:38AM -26.0310 -48.6450 181° South 321 369 10,200 -1,219 Descending FlightAware
04:38AM -26.0830 -48.6450 180° South 301 346 9,700 -1,182 Descending FlightAware
04:39AM -26.1280 -48.6450 180° South 299 344 8,900 -1,500 Descending FlightAware
04:40AM -26.2000 -48.6450 180° South 296 341 7,600 -1,149 Descending FlightAware
04:41AM -26.2520 -48.6450 180° South 273 314 7,100 -468 Descending FlightAware
04:41AM -26.2960 -48.6460 181° South 241 277 7,000 -100 Descending FlightAware
04:42AM -26.3210 -48.6450 178° South 229 264 7,000 -300 Level FlightAware
04:42AM -26.3560 -48.6400 173° South 210 242 6,700 -554 Descending FlightAware
04:43AM -26.3740 -48.6180 132° Southeast 203 234 6,400 -800 Descending FlightAware
04:43AM -26.3810 -48.6060 123° Southeast 202 232 6,100 -1,324 Descending FlightAware
04:44AM -26.3760 -48.5560 84° East 212 244 4,900 -903 Descending FlightAware
04:44AM -26.3440 -48.5500 10° North 203 234 4,700 -1,308 Descending FlightAware
04:45AM -26.3430 -48.6050 271° West 199 229 3,200 -1,333 Descending FlightAware
04:46AM -26.3440 -48.6330 268° West 202 232 3,100 -667 Descending FlightAware
04:48AM -26.2600 -48.7470 309° West 151 174 1,100 -663 Descending FlightAware
04:49AM -26.2487 -48.7640 309° West  Level Estimated
04:49AM -26.2500 -48.7600 311° West 151 174 1,100  Level FlightAware
04:52AM -26.2244 -48.7973 307° West  Level Estimated
04:53AM -26.2244 -48.7973 347° North  Level Estimated
04:54AM -26.2244 -48.7973 347° North  Level Estimated
04:55AM -26.2244 -48.7973 347° North  Level Estimated
04:56AM -26.2244 -48.7973 347° North  Level Estimated
04:57AM -26.2244 -48.7973 347° North  Level Estimated
04:58AM -26.2244 -48.7973 347° North  Level Estimated
04:59AM -26.2244 -48.7973 347° North  Level Estimated
05:00AM -26.2244 -48.7973 347° North  Level Estimated
05:01AM -26.2244 -48.7973 347° North  Level Estimated
05:02AM -26.2244 -48.7973 347° North  Level Estimated
05:03AM -26.2244 -48.7973 347° North  Level Estimated
05:04AM -26.2244 -48.7973 347° North  Level Estimated
05:05AM -26.2244 -48.7973 347° North  Level Estimated
05:06AM -26.2244 -48.7973 347° North  Level Estimated
05:07AM -26.2244 -48.7973 347° North  Level Estimated
05:08AM -26.2244 -48.7973 347° North  Level Estimated
05:09AM -26.2244 -48.7973 347° North  Level Estimated
05:10AM -26.2244 -48.7973 347° North  Level Estimated
05:11AM -26.2244 -48.7973 347° North  Level Estimated
05:12AM -26.2244 -48.7973 347° North  Level Estimated
05:13AM -26.2244 -48.7973 347° North  Level Estimated
05:14AM -26.2244 -48.7973 347° North  Level Estimated
05:15AM -26.2244 -48.7973 347° North  Level Estimated
05:16AM -26.2244 -48.7973 347° North  Level Estimated
05:17AM -26.2244 -48.7973 347° North  Level Estimated
05:18AM -26.2244 -48.7973 347° North  Level Estimated
05:19AM -26.2244 -48.7973 347° North  Level Estimated
05:20AM -26.2244 -48.7973 347° North  Level Estimated